Time,TemperatureF,DewpointF,PressureIn,WindDirection,WindDirectionDegrees,WindSpeedMPH,WindSpeedGustMPH,Humidity,HourlyPrecipIn,Conditions,Clouds,dailyrainin,SoftwareType,DateUTC
2013-06-30 00:09:00,73.6,56.0,29.82,NNW,348,0.0,1.0,54,0.00,,,0.00,weatherlink.com 1.10,2013-06-30 05:09:00,
2013-06-30 00:24:00,73.8,55.0,29.82,NNW,340,0.0,1.0,53,0.00,,,0.00,weatherlink.com 1.10,2013-06-30 05:24:00,
2013-06-30 00:39:00,73.4,56.0,29.82,North,351,2.0,3.0,54,0.00,,,0.00,weatherlink.com 1.10,2013-06-30 05:39:00,
2013-06-30 00:54:00,73.5,55.0,29.82,North,355,1.0,5.0,53,0.00,,,0.00,weatherlink.com 1.10,2013-06-30 05:54:00,
2013-06-30 01:09:00,73.0,55.0,29.82,North,355,0.0,0.0,54,0.00,,,0.00,weatherlink.com 1.10,2013-06-30 06:09:00,
2013-06-30 01:24:00,71.9,55.0,29.82,North,355,0.0,0.0,56,0.00,,,0.00,weatherlink.com 1.10,2013-06-30 06:24:00,
2013-06-30 01:39:00,71.5,56.0,29.83,North,355,0.0,1.0,58,0.00,,,0.00,weatherlink.com 1.10,2013-06-30 06:39:00,
2013-06-30 01:54:00,71.1,56.0,29.83,North,355,0.0,0.0,59,0.00,,,0.00,weatherlink.com 1.10,2013-06-30 06:54:00,
2013-06-30 02:09:00,70.8,56.0,29.83,North,355,0.0,0.0,60,0.00,,,0.00,weatherlink.com 1.10,2013-06-30 07:09:00,
2013-06-30 02:24:00,70.7,56.0,29.83,NW,320,0.0,1.0,60,0.00,,,0.00,weatherlink.com 1.10,2013-06-30 07:24:00,
2013-06-30 02:39:00,71.2,56.0,29.83,NNW,348,0.0,3.0,60,0.00,,,0.00,weatherlink.com 1.10,2013-06-30 07:39:00,
2013-06-30 02:54:00,70.2,56.0,29.83,NNW,348,0.0,0.0,62,0.00,,,0.00,weatherlink.com 1.10,2013-06-30 07:54:00,
2013-06-30 03:09:00,69.4,57.0,29.83,NNW,348,0.0,0.0,64,0.00,,,0.00,weatherlink.com 1.10,2013-06-30 08:09:00,
2013-06-30 03:24:00,69.0,57.0,29.83,NW,323,0.0,1.0,65,0.00,,,0.00,weatherlink.com 1.10,2013-06-30 08:24:00,
2013-06-30 03:39:00,69.0,57.0,29.83,NNW,331,0.0,1.0,66,0.00,,,0.00,weatherlink.com 1.10,2013-06-30 08:39:00,
2013-06-30 03:55:00,68.7,57.0,29.83,North,355,0.0,3.0,67,0.00,,,0.00,weatherlink.com 1.10,2013-06-30 08:55:00,
2013-06-30 04:10:00,68.3,57.0,29.83,NW,307,0.0,3.0,68,0.00,,,0.00,weatherlink.com 1.10,2013-06-30 09:10:00,
2013-06-30 04:25:00,67.8,57.0,29.84,North,355,0.0,4.0,69,0.00,,,0.00,weatherlink.com 1.10,2013-06-30 09:25:00,
2013-06-30 04:40:00,67.1,57.0,29.84,North,355,0.0,5.0,71,0.00,,,0.00,weatherlink.com 1.10,2013-06-30 09:40:00,
2013-06-30 04:55:00,66.7,57.0,29.84,NNE,24,0.0,4.0,72,0.00,,,0.00,weatherlink.com 1.10,2013-06-30 09:55:00,
2013-06-30 05:10:00,66.1,58.0,29.85,NNW,340,0.0,1.0,74,0.00,,,0.00,weatherlink.com 1.10,2013-06-30 10:10:00,
2013-06-30 05:25:00,66.2,58.0,29.85,North,355,0.0,3.0,74,0.00,,,0.00,weatherlink.com 1.10,2013-06-30 10:25:00,
2013-06-30 05:40:00,65.4,57.0,29.85,North,355,0.0,0.0,75,0.00,,,0.00,weatherlink.com 1.10,2013-06-30 10:40:00,
2013-06-30 05:55:00,65.1,57.0,29.86,North,355,0.0,0.0,76,0.00,,,0.00,weatherlink.com 1.10,2013-06-30 10:55:00,
2013-06-30 06:10:00,65.1,57.0,29.87,North,355,0.0,5.0,76,0.00,,,0.00,weatherlink.com 1.10,2013-06-30 11:10:00,
2013-06-30 06:25:00,64.8,57.0,29.87,North,355,0.0,0.0,77,0.00,,,0.00,weatherlink.com 1.10,2013-06-30 11:25:00,
2013-06-30 06:40:00,64.9,58.0,29.88,North,355,0.0,0.0,77,0.00,,,0.00,weatherlink.com 1.10,2013-06-30 11:40:00,
2013-06-30 06:55:00,65.2,58.0,29.88,North,355,0.0,1.0,77,0.00,,,0.00,weatherlink.com 1.10,2013-06-30 11:55:00,
2013-06-30 07:10:00,66.1,58.0,29.89,North,5,0.0,4.0,76,0.00,,,0.00,weatherlink.com 1.10,2013-06-30 12:10:00,
2013-06-30 07:25:00,66.9,58.0,29.89,NNW,348,1.0,9.0,74,0.00,,,0.00,weatherlink.com 1.10,2013-06-30 12:25:00,
2013-06-30 07:40:00,67.6,59.0,29.89,NNW,338,1.0,7.0,74,0.00,,,0.00,weatherlink.com 1.10,2013-06-30 12:40:00,
2013-06-30 07:55:00,68.0,59.0,29.90,North,350,4.0,7.0,73,0.00,,,0.00,weatherlink.com 1.10,2013-06-30 12:55:00,
2013-06-30 08:10:00,68.9,60.0,29.90,NNE,26,4.0,8.0,72,0.00,,,0.00,weatherlink.com 1.10,2013-06-30 13:10:00,
2013-06-30 08:25:00,69.3,59.0,29.90,NNE,14,6.0,12.0,69,0.00,,,0.00,weatherlink.com 1.10,2013-06-30 13:25:00,
2013-06-30 08:40:00,70.3,60.0,29.91,North,355,0.0,7.0,69,0.00,,,0.00,weatherlink.com 1.10,2013-06-30 13:40:00,
2013-06-30 08:55:00,70.7,59.0,29.91,NNW,329,0.0,9.0,67,0.00,,,0.00,weatherlink.com 1.10,2013-06-30 13:55:00,
2013-06-30 09:10:00,71.6,58.0,29.91,North,355,7.0,13.0,63,0.00,,,0.00,weatherlink.com 1.10,2013-06-30 14:10:00,
2013-06-30 09:25:00,72.4,58.0,29.92,North,5,9.0,12.0,61,0.00,,,0.00,weatherlink.com 1.10,2013-06-30 14:25:00,
2013-06-30 09:40:00,73.1,58.0,29.92,North,360,5.0,13.0,60,0.00,,,0.00,weatherlink.com 1.10,2013-06-30 14:40:00,
2013-06-30 09:55:00,74.5,59.0,29.92,North,355,5.0,9.0,59,0.00,,,0.00,weatherlink.com 1.10,2013-06-30 14:55:00,
2013-06-30 10:10:00,74.7,57.0,29.92,NNW,346,4.0,14.0,55,0.00,,,0.00,weatherlink.com 1.10,2013-06-30 15:10:00,
2013-06-30 10:25:00,75.4,58.0,29.91,NNW,342,9.0,16.0,55,0.00,,,0.00,weatherlink.com 1.10,2013-06-30 15:25:00,
2013-06-30 10:40:00,76.2,58.0,29.91,North,355,4.0,17.0,54,0.00,,,0.00,weatherlink.com 1.10,2013-06-30 15:40:00,
2013-06-30 10:55:00,77.2,59.0,29.91,NW,314,5.0,15.0,54,0.00,,,0.00,weatherlink.com 1.10,2013-06-30 15:55:00,
2013-06-30 11:10:00,77.2,58.0,29.91,North,350,8.0,17.0,52,0.00,,,0.00,weatherlink.com 1.10,2013-06-30 16:10:00,
2013-06-30 11:25:00,77.4,58.0,29.91,NNE,22,9.0,19.0,51,0.00,,,0.00,weatherlink.com 1.10,2013-06-30 16:25:00,
2013-06-30 11:40:00,77.9,57.0,29.91,North,360,5.0,19.0,49,0.00,,,0.00,weatherlink.com 1.10,2013-06-30 16:40:00,
2013-06-30 11:55:00,78.4,58.0,29.91,North,355,14.0,18.0,50,0.00,,,0.00,weatherlink.com 1.10,2013-06-30 16:55:00,
2013-06-30 12:10:00,78.6,58.0,29.91,North,355,10.0,15.0,49,0.00,,,0.00,weatherlink.com 1.10,2013-06-30 17:10:00,
2013-06-30 12:25:00,79.1,58.0,29.91,North,355,4.0,17.0,48,0.00,,,0.00,weatherlink.com 1.10,2013-06-30 17:25:00,
2013-06-30 12:40:00,79.4,57.0,29.91,North,5,9.0,16.0,46,0.00,,,0.00,weatherlink.com 1.10,2013-06-30 17:40:00,
2013-06-30 12:55:00,79.6,57.0,29.90,NNW,336,4.0,22.0,46,0.00,,,0.00,weatherlink.com 1.10,2013-06-30 17:55:00,
2013-06-30 13:10:00,79.7,56.0,29.89,NNW,334,4.0,18.0,45,0.00,,,0.00,weatherlink.com 1.10,2013-06-30 18:10:00,
2013-06-30 13:26:00,80.0,57.0,29.89,NNW,342,4.0,17.0,46,0.00,,,0.00,weatherlink.com 1.10,2013-06-30 18:26:00,
2013-06-30 13:41:00,80.5,58.0,29.89,NNW,327,5.0,14.0,47,0.00,,,0.00,weatherlink.com 1.10,2013-06-30 18:41:00,
2013-06-30 13:56:00,79.7,59.0,29.89,North,5,3.0,18.0,49,0.00,,,0.00,weatherlink.com 1.10,2013-06-30 18:56:00,
2013-06-30 14:11:00,78.9,58.0,29.89,North,360,5.0,16.0,49,0.00,,,0.00,weatherlink.com 1.10,2013-06-30 19:11:00,
2013-06-30 14:26:00,80.2,59.0,29.89,North,5,4.0,13.0,49,0.00,,,0.00,weatherlink.com 1.10,2013-06-30 19:26:00,
2013-06-30 14:41:00,79.7,59.0,29.89,NE,34,6.0,14.0,49,0.00,,,0.00,weatherlink.com 1.10,2013-06-30 19:41:00,
2013-06-30 15:11:00,80.9,59.0,29.89,NNW,342,5.0,14.0,48,0.00,,,0.00,weatherlink.com 1.10,2013-06-30 20:11:00,
2013-06-30 15:26:00,81.1,59.0,29.89,North,351,3.0,14.0,47,0.00,,,0.00,weatherlink.com 1.10,2013-06-30 20:26:00,
2013-06-30 15:41:00,81.3,59.0,29.88,North,360,4.0,13.0,46,0.00,,,0.00,weatherlink.com 1.10,2013-06-30 20:41:00,
2013-06-30 15:56:00,81.4,60.0,29.89,North,355,0.0,13.0,48,0.00,,,0.00,weatherlink.com 1.10,2013-06-30 20:56:00,
2013-06-30 16:11:00,81.1,59.0,29.89,NNW,334,5.0,14.0,47,0.00,,,0.00,weatherlink.com 1.10,2013-06-30 21:11:00,
2013-06-30 16:26:00,81.6,59.0,29.88,NNW,333,7.0,13.0,47,0.00,,,0.00,weatherlink.com 1.10,2013-06-30 21:26:00,
2013-06-30 16:41:00,81.3,60.0,29.88,North,9,8.0,16.0,48,0.00,,,0.00,weatherlink.com 1.10,2013-06-30 21:41:00,
2013-06-30 16:56:00,81.6,59.0,29.88,NNW,348,10.0,12.0,47,0.00,,,0.00,weatherlink.com 1.10,2013-06-30 21:56:00,
2013-06-30 17:11:00,81.2,58.0,29.88,NNW,346,1.0,13.0,45,0.00,,,0.00,weatherlink.com 1.10,2013-06-30 22:11:00,
2013-06-30 17:26:00,80.9,59.0,29.88,NNE,25,4.0,16.0,47,0.00,,,0.00,weatherlink.com 1.10,2013-06-30 22:26:00,
2013-06-30 17:41:00,81.7,59.0,29.88,North,360,11.0,11.0,47,0.00,,,0.00,weatherlink.com 1.10,2013-06-30 22:41:00,
2013-06-30 17:56:00,80.6,58.0,29.88,North,360,6.0,12.0,47,0.00,,,0.00,weatherlink.com 1.10,2013-06-30 22:56:00,
2013-06-30 18:11:00,80.2,58.0,29.88,NNE,25,11.0,17.0,46,0.00,,,0.00,weatherlink.com 1.10,2013-06-30 23:11:00,
2013-06-30 18:26:00,80.1,58.0,29.88,North,9,8.0,13.0,47,0.00,,,0.00,weatherlink.com 1.10,2013-06-30 23:26:00,
2013-06-30 18:41:00,80.2,58.0,29.88,North,11,7.0,11.0,47,0.00,,,0.00,weatherlink.com 1.10,2013-06-30 23:41:00,
2013-06-30 18:56:00,79.7,58.0,29.88,North,349,3.0,10.0,47,0.00,,,0.00,weatherlink.com 1.10,2013-06-30 23:56:00,
2013-06-30 19:11:00,78.9,57.0,29.88,NNE,27,5.0,12.0,47,0.00,,,0.00,weatherlink.com 1.10,2013-07-01 00:11:00,
2013-06-30 19:26:00,78.4,58.0,29.89,NNW,340,0.0,8.0,49,0.00,,,0.00,weatherlink.com 1.10,2013-07-01 00:26:00,
2013-06-30 19:41:00,78.6,58.0,29.88,North,349,4.0,10.0,49,0.00,,,0.00,weatherlink.com 1.10,2013-07-01 00:41:00,
2013-06-30 19:56:00,78.1,58.0,29.89,North,351,0.0,7.0,50,0.00,,,0.00,weatherlink.com 1.10,2013-07-01 00:56:00,
2013-06-30 20:11:00,77.4,58.0,29.89,North,355,0.0,5.0,51,0.00,,,0.00,weatherlink.com 1.10,2013-07-01 01:11:00,
2013-06-30 20:26:00,77.2,58.0,29.89,North,355,0.0,3.0,51,0.00,,,0.00,weatherlink.com 1.10,2013-07-01 01:26:00,
2013-06-30 20:41:00,76.5,58.0,29.89,North,351,0.0,1.0,53,0.00,,,0.00,weatherlink.com 1.10,2013-07-01 01:41:00,
2013-06-30 20:56:00,75.4,58.0,29.90,North,351,0.0,3.0,55,0.00,,,0.00,weatherlink.com 1.10,2013-07-01 01:56:00,
2013-06-30 21:11:00,75.0,58.0,29.90,North,360,1.0,3.0,55,0.00,,,0.00,weatherlink.com 1.10,2013-07-01 02:11:00,
2013-06-30 21:26:00,74.8,57.0,29.90,North,351,0.0,3.0,55,0.00,,,0.00,weatherlink.com 1.10,2013-07-01 02:26:00,
2013-06-30 21:41:00,73.4,57.0,29.91,North,355,4.0,4.0,57,0.00,,,0.00,weatherlink.com 1.10,2013-07-01 02:41:00,
2013-06-30 21:56:00,73.1,56.0,29.91,North,355,2.0,5.0,56,0.00,,,0.00,weatherlink.com 1.10,2013-07-01 02:56:00,
2013-06-30 22:11:00,72.9,57.0,29.92,North,5,0.0,3.0,57,0.00,,,0.00,weatherlink.com 1.10,2013-07-01 03:11:00,
2013-06-30 22:26:00,71.8,56.0,29.92,North,360,0.0,3.0,58,0.00,,,0.00,weatherlink.com 1.10,2013-07-01 03:26:00,
2013-06-30 22:41:00,71.6,56.0,29.93,North,355,0.0,3.0,58,0.00,,,0.00,weatherlink.com 1.10,2013-07-01 03:41:00,
2013-06-30 22:56:00,70.7,56.0,29.93,North,355,1.0,2.0,60,0.00,,,0.00,weatherlink.com 1.10,2013-07-01 03:56:00,
2013-06-30 23:11:00,70.9,56.0,29.93,North,355,0.0,4.0,59,0.00,,,0.00,weatherlink.com 1.10,2013-07-01 04:11:00,
2013-06-30 23:26:00,69.7,56.0,29.93,North,355,0.0,3.0,61,0.00,,,0.00,weatherlink.com 1.10,2013-07-01 04:26:00,
2013-06-30 23:41:00,69.1,55.0,29.93,North,355,0.0,2.0,62,0.00,,,0.00,weatherlink.com 1.10,2013-07-01 04:41:00,
2013-06-30 23:56:00,69.0,56.0,29.93,North,355,0.0,3.0,63,0.00,,,0.00,weatherlink.com 1.10,2013-07-01 04:56:00,